createdAt,value
2022-12-16T00:02:05.186Z,-5.51
2022-12-16T00:05:09.723Z,-5.41
2022-12-16T00:08:15.013Z,-5.39
2022-12-16T00:11:18.652Z,-5.32
2022-12-16T00:14:22.210Z,-5.29
2022-12-16T00:17:25.794Z,-5.34
2022-12-16T00:20:29.415Z,-5.24
2022-12-16T00:23:35.929Z,-5.14
2022-12-16T00:26:39.865Z,-5.06
2022-12-16T00:29:43.406Z,-5.09
2022-12-16T00:32:47.007Z,-5.11
2022-12-16T00:35:50.591Z,-4.97
2022-12-16T00:38:56.785Z,-5.03
2022-12-16T00:42:00.324Z,-4.93
2022-12-16T00:45:04.877Z,-4.90
2022-12-16T00:48:09.213Z,-4.89
2022-12-16T00:51:12.761Z,-4.92
2022-12-16T00:54:17.772Z,-4.85
2022-12-16T00:57:21.419Z,-4.83
2022-12-16T01:00:25.350Z,-4.85
2022-12-16T01:03:29.434Z,-4.88
2022-12-16T01:06:33.119Z,-4.86
2022-12-16T01:09:38.430Z,-4.84
2022-12-16T01:12:42.002Z,-4.80
2022-12-16T01:15:45.661Z,-4.85
2022-12-16T01:18:49.395Z,-4.85
2022-12-16T01:21:53.037Z,-4.79
2022-12-16T01:24:58.643Z,-4.82
2022-12-16T01:28:02.238Z,-4.81
2022-12-16T01:31:06.230Z,-4.76
2022-12-16T01:34:11.059Z,-4.78
2022-12-16T01:37:14.918Z,-4.76
2022-12-16T01:40:23.758Z,-4.79
2022-12-16T01:43:31.322Z,-4.78
2022-12-16T01:46:38.636Z,-4.73
2022-12-16T01:49:49.004Z,-4.74
2022-12-16T01:53:00.488Z,-4.71
2022-12-16T01:56:05.896Z,-4.74
2022-12-16T01:59:10.309Z,-4.78
2022-12-16T02:02:16.087Z,-4.80
2022-12-16T02:05:22.966Z,-4.76
2022-12-16T02:08:26.554Z,-4.80
2022-12-16T02:12:15.304Z,-4.87
2022-12-16T02:15:40.775Z,-4.93
2022-12-16T02:18:56.586Z,-4.92
2022-12-16T02:22:17.567Z,-4.98
2022-12-16T02:26:08.177Z,-5.04
2022-12-16T02:30:08.677Z,-4.98
2022-12-16T02:33:31.793Z,-4.98
2022-12-16T02:36:57.986Z,-5.05
2022-12-16T02:40:04.701Z,-5.12
2022-12-16T02:43:19.167Z,-5.09
2022-12-16T02:46:28.463Z,-5.00
2022-12-16T02:49:50.043Z,-5.10
2022-12-16T02:52:57.162Z,-5.04
2022-12-16T02:56:19.568Z,-4.92
2022-12-16T02:59:35.943Z,-4.92
2022-12-16T03:02:50.895Z,-4.92
2022-12-16T03:06:00.135Z,-4.93
2022-12-16T03:09:10.233Z,-5.07
2022-12-16T03:12:21.271Z,-5.09
2022-12-16T03:15:30.073Z,-5.07
2022-12-16T03:18:35.987Z,-5.09
2022-12-16T03:21:50.442Z,-5.11
2022-12-16T03:24:54.704Z,-5.21
2022-12-16T03:28:08.105Z,-5.32
2022-12-16T03:31:31.260Z,-5.27
2022-12-16T03:34:42.207Z,-5.22
2022-12-16T03:37:50.969Z,-5.20
2022-12-16T03:40:57.848Z,-5.29
2022-12-16T03:44:01.841Z,-5.32
2022-12-16T03:47:06.608Z,-5.34
2022-12-16T03:50:11.171Z,-5.29
2022-12-16T03:53:16.140Z,-5.32
2022-12-16T03:56:19.793Z,-5.42
2022-12-16T03:59:23.706Z,-5.41
2022-12-16T04:02:27.458Z,-5.39
2022-12-16T04:05:31.169Z,-5.48
2022-12-16T04:08:36.160Z,-5.53
2022-12-16T04:11:57.175Z,-5.64
2022-12-16T04:15:17.967Z,-5.73
2022-12-16T04:18:38.942Z,-5.78
2022-12-16T04:22:00.081Z,-5.78
2022-12-16T04:25:10.289Z,-5.89
2022-12-16T04:28:13.854Z,-6.07
2022-12-16T04:31:17.602Z,-6.13
2022-12-16T04:34:27.836Z,-6.12
2022-12-16T04:38:03.466Z,-6.16
2022-12-16T04:41:25.875Z,-6.12
2022-12-16T04:44:47.301Z,-6.10
2022-12-16T04:48:08.450Z,-5.99
2022-12-16T04:51:28.721Z,-5.97
2022-12-16T04:54:49.758Z,-5.88
2022-12-16T04:58:14.213Z,-5.92
2022-12-16T05:01:35.314Z,-5.82
2022-12-16T05:04:56.505Z,-5.78
2022-12-16T05:08:17.531Z,-5.72
2022-12-16T05:11:38.683Z,-5.79
2022-12-16T05:15:00.771Z,-5.81
2022-12-16T05:18:28.090Z,-5.73
2022-12-16T05:21:49.252Z,-5.67
2022-12-16T05:25:10.203Z,-5.79
2022-12-16T05:28:31.387Z,-5.75
2022-12-16T05:31:53.478Z,-5.72
2022-12-16T05:35:13.430Z,-5.61
2022-12-16T05:38:34.686Z,-5.55
2022-12-16T05:41:55.778Z,-5.59
2022-12-16T05:45:16.857Z,-5.60
2022-12-16T05:48:43.117Z,-5.61
2022-12-16T05:52:07.033Z,-5.61
2022-12-16T05:55:33.727Z,-5.67
2022-12-16T05:58:55.598Z,-5.66
2022-12-16T06:02:16.650Z,-5.71
2022-12-16T06:05:38.980Z,-5.62
2022-12-16T06:09:00.102Z,-5.64
2022-12-16T06:12:21.216Z,-5.69
2022-12-16T06:15:41.617Z,-5.59
2022-12-16T06:19:02.870Z,-5.54
2022-12-16T06:22:24.984Z,-5.58
2022-12-16T06:25:46.150Z,-5.51
2022-12-16T06:29:07.434Z,-5.63
2022-12-16T06:32:28.641Z,-5.67
2022-12-16T06:35:50.121Z,-5.68
2022-12-16T06:39:12.950Z,-5.71
2022-12-16T06:42:34.020Z,-5.76
2022-12-16T06:45:55.338Z,-5.83
2022-12-16T06:49:16.277Z,-5.89
2022-12-16T06:52:37.104Z,-5.85
2022-12-16T06:55:59.751Z,-5.92
2022-12-16T06:59:20.866Z,-5.82
2022-12-16T07:02:42.051Z,-5.74
2022-12-16T07:06:02.121Z,-5.74
2022-12-16T07:09:23.382Z,-5.78
2022-12-16T07:12:45.986Z,-5.70
2022-12-16T07:16:15.542Z,-5.61
2022-12-16T07:19:36.497Z,-5.60
2022-12-16T07:23:07.802Z,-5.48
2022-12-16T07:26:33.066Z,-5.40
2022-12-16T07:29:55.459Z,-5.41
2022-12-16T07:33:16.417Z,-5.44
2022-12-16T07:36:51.968Z,-5.44
2022-12-16T07:40:13.194Z,-5.43
2022-12-16T07:43:34.625Z,-5.49
2022-12-16T07:46:57.323Z,-5.53
2022-12-16T07:50:18.174Z,-5.52
2022-12-16T07:53:40.044Z,-5.34
2022-12-16T07:57:01.181Z,-5.34
2022-12-16T08:00:23.701Z,-5.40
2022-12-16T08:03:48.055Z,-5.37
2022-12-16T08:07:09.146Z,-5.22
2022-12-16T08:10:30.137Z,-5.14
2022-12-16T08:13:51.095Z,-5.09
2022-12-16T08:17:11.992Z,-5.14
2022-12-16T08:20:34.993Z,-5.07
2022-12-16T08:23:55.690Z,-5.07
2022-12-16T08:27:16.781Z,-4.98
2022-12-16T08:30:37.937Z,-4.98
2022-12-16T08:33:59.040Z,-5.03
2022-12-16T08:37:21.745Z,-4.97
2022-12-16T08:40:52.336Z,-5.06
2022-12-16T08:44:16.250Z,-5.01
2022-12-16T08:47:37.306Z,-4.80
2022-12-16T08:50:57.315Z,-4.90
2022-12-16T08:54:20.076Z,-4.94
2022-12-16T08:57:41.061Z,-4.95
2022-12-16T09:01:07.009Z,-4.93
2022-12-16T09:04:28.920Z,-4.87
2022-12-16T09:07:49.884Z,-4.82
2022-12-16T09:11:12.530Z,-4.78
2022-12-16T09:14:33.534Z,-4.67
2022-12-16T09:17:54.602Z,-4.70
2022-12-16T09:21:17.326Z,-4.62
2022-12-16T09:24:38.539Z,-4.43
2022-12-16T09:28:00.773Z,-4.71
2022-12-16T09:31:21.655Z,-4.80
2022-12-16T09:34:42.710Z,-4.54
2022-12-16T09:38:05.965Z,-4.51
2022-12-16T09:41:52.413Z,-4.41
2022-12-16T09:45:32.808Z,-4.44
2022-12-16T09:49:03.919Z,-4.38
2022-12-16T09:52:32.736Z,-4.20
2022-12-16T09:55:59.252Z,-3.97
2022-12-16T09:59:28.291Z,-4.04
2022-12-16T10:02:51.552Z,-3.97
2022-12-16T10:06:26.036Z,-3.99
2022-12-16T10:09:56.510Z,-3.92
2022-12-16T10:13:31.224Z,-3.81
2022-12-16T10:17:03.790Z,-3.74
2022-12-16T10:20:41.760Z,-3.49
2022-12-16T10:24:15.714Z,-3.66
2022-12-16T10:27:48.521Z,-3.67
2022-12-16T10:31:09.878Z,-3.53
2022-12-16T10:34:37.198Z,-3.51
2022-12-16T10:38:02.231Z,-3.46
2022-12-16T10:41:25.363Z,-3.47
2022-12-16T10:44:56.606Z,-3.42
2022-12-16T10:48:19.236Z,-3.40
2022-12-16T10:51:42.426Z,-3.39
2022-12-16T10:55:17.520Z,-3.34
2022-12-16T10:58:53.779Z,-3.23
2022-12-16T11:02:18.979Z,-3.01
2022-12-16T11:05:50.455Z,-2.88
2022-12-16T11:09:20.268Z,-2.91
2022-12-16T11:12:47.119Z,-2.83
2022-12-16T11:16:31.815Z,-2.63
2022-12-16T11:19:52.720Z,-2.85
2022-12-16T11:23:37.912Z,-2.68
2022-12-16T11:27:12.141Z,-2.53
2022-12-16T11:30:40.618Z,-2.66
2022-12-16T11:34:04.284Z,-2.48
2022-12-16T11:37:27.566Z,-2.47
2022-12-16T11:40:50.496Z,-2.40
2022-12-16T11:44:14.764Z,-2.37
2022-12-16T11:47:52.575Z,-2.55
2022-12-16T11:51:17.028Z,-2.61
2022-12-16T11:54:43.726Z,-2.45
2022-12-16T11:58:16.628Z,-2.42
2022-12-16T12:01:45.672Z,-2.54
2022-12-16T12:05:09.752Z,-2.45
2022-12-16T12:08:41.598Z,-2.36
2022-12-16T12:12:23.883Z,-2.26
2022-12-16T12:15:56.440Z,-2.20
2022-12-16T12:19:27.371Z,-2.25
2022-12-16T12:22:55.914Z,-2.16
2022-12-16T12:26:30.534Z,-2.13
2022-12-16T12:30:16.069Z,-2.15
2022-12-16T12:33:53.276Z,-2.07
2022-12-16T12:37:27.598Z,-2.12
2022-12-16T12:41:05.074Z,-2.21
2022-12-16T12:44:48.923Z,-2.31
2022-12-16T12:48:37.141Z,-2.08
2022-12-16T12:52:11.129Z,-2.16
2022-12-16T12:55:42.428Z,-1.95
2022-12-16T12:59:08.656Z,-2.16
2022-12-16T13:02:39.617Z,-2.03
2022-12-16T13:06:01.609Z,-1.91
2022-12-16T13:09:40.798Z,-1.89
2022-12-16T13:13:01.998Z,-1.91
2022-12-16T13:16:43.495Z,-1.80
2022-12-16T13:20:22.300Z,-2.02
2022-12-16T13:23:51.525Z,-1.98
2022-12-16T13:27:29.411Z,-2.02
2022-12-16T13:30:52.619Z,-2.01
2022-12-16T13:34:23.988Z,-2.05
2022-12-16T13:37:46.857Z,-2.05
2022-12-16T13:41:12.923Z,-1.98
2022-12-16T13:45:18.177Z,-2.00
2022-12-16T13:48:57.976Z,-1.98
2022-12-16T13:52:33.415Z,-1.92
2022-12-16T13:56:03.271Z,-1.89
2022-12-16T13:59:33.614Z,-1.93
2022-12-16T14:03:00.923Z,-1.95
2022-12-16T14:06:31.114Z,-2.01
2022-12-16T14:10:01.010Z,-2.05
2022-12-16T14:13:28.815Z,-2.11
2022-12-16T14:17:06.119Z,-2.12
2022-12-16T14:20:39.869Z,-2.26
2022-12-16T14:24:08.196Z,-2.26
2022-12-16T14:27:38.958Z,-2.32
2022-12-16T14:31:00.900Z,-2.31
2022-12-16T14:34:30.901Z,-2.39
2022-12-16T14:37:56.210Z,-2.52
2022-12-16T14:41:17.307Z,-2.60
2022-12-16T14:44:45.504Z,-2.61
2022-12-16T14:48:06.533Z,-2.63
2022-12-16T14:51:46.708Z,-2.74
2022-12-16T14:55:07.758Z,-2.81
2022-12-16T14:58:32.064Z,-2.88
2022-12-16T15:02:00.410Z,-2.98
2022-12-16T15:05:22.145Z,-3.03
2022-12-16T15:08:45.382Z,-3.09
2022-12-16T15:12:08.390Z,-3.18
2022-12-16T15:15:41.669Z,-3.22
2022-12-16T15:19:13.611Z,-3.29
2022-12-16T15:22:35.957Z,-3.41
2022-12-16T15:25:53.467Z,-3.46
2022-12-16T15:29:14.576Z,-3.48
2022-12-16T15:32:50.465Z,-3.54
2022-12-16T15:36:21.581Z,-3.65
2022-12-16T15:39:52.646Z,-3.71
2022-12-16T15:43:13.995Z,-3.81
2022-12-16T15:46:38.923Z,-3.91
2022-12-16T15:50:04.739Z,-3.96
2022-12-16T15:53:49.290Z,-4.07
2022-12-16T15:57:21.843Z,-4.11
2022-12-16T16:00:46.480Z,-4.13
2022-12-16T16:04:09.893Z,-4.18
2022-12-16T16:07:37.444Z,-4.19
2022-12-16T16:11:01.850Z,-4.22
2022-12-16T16:14:22.617Z,-4.25
2022-12-16T16:17:43.581Z,-4.20
2022-12-16T16:21:04.801Z,-4.20
2022-12-16T16:24:26.437Z,-4.28
2022-12-16T16:27:49.146Z,-4.25
2022-12-16T16:31:10.372Z,-4.19
2022-12-16T16:34:31.916Z,-4.20
2022-12-16T16:37:52.777Z,-4.17
2022-12-16T16:41:14.289Z,-4.17
2022-12-16T16:44:36.306Z,-4.12
2022-12-16T16:47:57.467Z,-3.91
2022-12-16T16:51:20.677Z,-3.81
2022-12-16T16:54:41.496Z,-3.77
2022-12-16T16:58:03.145Z,-3.75
2022-12-16T17:01:30.658Z,-3.74
2022-12-16T17:04:51.709Z,-3.79
2022-12-16T17:08:12.851Z,-3.81
2022-12-16T17:11:37.977Z,-3.90
2022-12-16T17:14:59.033Z,-4.02
2022-12-16T17:18:22.584Z,-4.16
2022-12-16T17:21:43.925Z,-4.22
2022-12-16T17:25:04.997Z,-4.22
2022-12-16T17:28:26.760Z,-4.13
2022-12-16T17:31:48.276Z,-4.13
2022-12-16T17:35:11.255Z,-4.10
2022-12-16T17:38:32.827Z,-4.19
2022-12-16T17:41:50.515Z,-4.23
2022-12-16T17:45:11.461Z,-4.23
2022-12-16T17:48:32.513Z,-4.18
2022-12-16T17:51:54.892Z,-4.16
2022-12-16T17:55:16.275Z,-4.14
2022-12-16T17:58:37.318Z,-4.11
2022-12-16T18:01:58.596Z,-4.07
2022-12-16T18:05:20.009Z,-4.09
2022-12-16T18:08:42.601Z,-4.03
2022-12-16T18:12:03.595Z,-4.10
2022-12-16T18:15:25.344Z,-4.02
2022-12-16T18:18:46.522Z,-3.98
2022-12-16T18:22:07.432Z,-4.00
2022-12-16T18:25:39.231Z,-3.98
2022-12-16T18:29:00.042Z,-3.86
2022-12-16T18:32:21.106Z,-3.80
2022-12-16T18:35:42.064Z,-3.76
2022-12-16T18:39:03.100Z,-3.74
2022-12-16T18:42:25.793Z,-3.71
2022-12-16T18:45:47.133Z,-3.73
2022-12-16T18:49:08.069Z,-3.70
2022-12-16T18:52:29.826Z,-3.68
2022-12-16T18:55:50.929Z,-3.69
2022-12-16T18:59:13.668Z,-3.68
2022-12-16T19:02:34.625Z,-3.72
2022-12-16T19:05:55.422Z,-3.70
2022-12-16T19:09:24.926Z,-3.69
2022-12-16T19:12:45.933Z,-3.75
2022-12-16T19:16:14.716Z,-3.72
2022-12-16T19:19:35.874Z,-3.71
2022-12-16T19:22:56.828Z,-3.84
2022-12-16T19:26:19.158Z,-3.75
2022-12-16T19:29:51.720Z,-3.81
2022-12-16T19:33:14.561Z,-3.84
2022-12-16T19:36:35.579Z,-3.85
2022-12-16T19:39:56.858Z,-3.74
2022-12-16T19:43:18.059Z,-3.96
2022-12-16T19:46:39.342Z,-3.87
2022-12-16T19:50:02.003Z,-3.90
2022-12-16T19:53:23.159Z,-3.93
2022-12-16T19:56:43.638Z,-4.00
2022-12-16T20:00:04.577Z,-3.93
2022-12-16T20:03:27.246Z,-3.98
2022-12-16T20:06:56.038Z,-3.94
2022-12-16T20:10:17.620Z,-3.92
2022-12-16T20:13:39.046Z,-3.93
2022-12-16T20:17:01.192Z,-3.96
2022-12-16T20:20:22.819Z,-3.86
2022-12-16T20:23:44.303Z,-3.99
2022-12-16T20:27:05.409Z,-4.08
2022-12-16T20:30:28.674Z,-4.07
2022-12-16T20:33:49.973Z,-4.09
2022-12-16T20:37:10.959Z,-4.07
2022-12-16T20:40:33.844Z,-4.09
2022-12-16T20:43:54.948Z,-4.13
2022-12-16T20:47:17.752Z,-4.20
2022-12-16T20:50:38.898Z,-4.19
2022-12-16T20:54:00.967Z,-4.21
2022-12-16T20:57:23.311Z,-4.21
2022-12-16T21:00:44.348Z,-4.22
2022-12-16T21:04:05.467Z,-4.05
2022-12-16T21:07:26.875Z,-4.08
2022-12-16T21:10:48.460Z,-4.11
2022-12-16T21:14:13.088Z,-4.13
2022-12-16T21:17:34.161Z,-4.22
2022-12-16T21:20:56.150Z,-4.24
2022-12-16T21:24:16.977Z,-4.23
2022-12-16T21:27:37.950Z,-4.21
2022-12-16T21:31:00.509Z,-4.21
2022-12-16T21:34:21.806Z,-4.19
2022-12-16T21:37:42.934Z,-4.15
2022-12-16T21:41:10.170Z,-4.13
2022-12-16T21:44:31.307Z,-4.07
2022-12-16T21:47:53.601Z,-4.03
2022-12-16T21:51:16.802Z,-4.03
2022-12-16T21:54:40.327Z,-4.01
2022-12-16T21:58:01.848Z,-3.92
2022-12-16T22:01:23.618Z,-4.12
2022-12-16T22:04:45.910Z,-4.05
2022-12-16T22:08:07.248Z,-4.07
2022-12-16T22:11:28.893Z,-4.20
2022-12-16T22:14:49.881Z,-4.16
2022-12-16T22:18:10.762Z,-4.01
2022-12-16T22:21:32.921Z,-4.31
2022-12-16T22:24:53.983Z,-4.27
2022-12-16T22:28:17.572Z,-4.29
2022-12-16T22:31:38.682Z,-4.37
2022-12-16T22:34:59.880Z,-4.41
2022-12-16T22:38:22.533Z,-4.50
2022-12-16T22:41:43.649Z,-4.56
2022-12-16T22:45:04.940Z,-4.59
2022-12-16T22:48:26.223Z,-4.62
2022-12-16T22:52:01.660Z,-4.62
2022-12-16T22:55:24.051Z,-4.74
2022-12-16T22:58:45.162Z,-4.88
2022-12-16T23:02:02.820Z,-4.93
2022-12-16T23:05:27.837Z,-4.98
2022-12-16T23:08:49.682Z,-5.01
2022-12-16T23:12:12.629Z,-5.03
2022-12-16T23:15:34.421Z,-4.97
2022-12-16T23:22:36.158Z,-5.15
2022-12-16T23:25:57.544Z,-5.25
2022-12-16T23:29:19.834Z,-5.41
2022-12-16T23:32:41.127Z,-5.40
2022-12-16T23:36:02.793Z,-5.33
2022-12-16T23:39:23.781Z,-5.38
2022-12-16T23:42:44.773Z,-5.44
2022-12-16T23:46:07.165Z,-5.43
2022-12-16T23:49:30.535Z,-5.47
2022-12-16T23:52:51.454Z,-5.59
2022-12-16T23:56:14.282Z,-5.64
2022-12-16T23:59:35.493Z,-5.54
